createdAt,value
2022-12-03T00:01:38.696Z,33.10
2022-12-03T00:04:05.142Z,36.60
2022-12-03T00:06:34.484Z,29.30
2022-12-03T00:09:01.117Z,29.90
2022-12-03T00:11:27.502Z,34.60
2022-12-03T00:13:53.882Z,37.20
2022-12-03T00:16:20.335Z,32.10
2022-12-03T00:18:46.862Z,35.20
2022-12-03T00:24:49.623Z,33.50
2022-12-03T00:27:15.970Z,36.60
2022-12-03T00:29:42.404Z,47.00
2022-12-03T00:32:08.814Z,53.40
2022-12-03T00:34:35.182Z,49.30
2022-12-03T00:37:01.552Z,45.80
2022-12-03T00:39:27.955Z,38.50
2022-12-03T00:41:54.483Z,37.20
2022-12-03T00:44:20.843Z,42.00
2022-12-03T00:46:47.488Z,33.70
2022-12-03T00:49:13.948Z,41.80
2022-12-03T00:51:40.304Z,38.50
2022-12-03T00:54:06.765Z,37.40
2022-12-03T00:56:33.776Z,35.90
2022-12-03T00:59:00.117Z,34.10
2022-12-03T01:01:26.605Z,35.50
2022-12-03T01:03:53.136Z,44.70
2022-12-03T01:06:20.250Z,38.30
2022-12-03T01:08:46.681Z,37.30
2022-12-03T01:11:31.851Z,32.30
2022-12-03T01:13:58.220Z,33.70
2022-12-03T01:16:24.728Z,32.30
2022-12-03T01:18:52.185Z,40.90
2022-12-03T01:21:18.819Z,36.80
2022-12-03T01:23:45.261Z,34.00
2022-12-03T01:26:11.664Z,37.20
2022-12-03T01:28:38.114Z,38.00
2022-12-03T01:31:23.680Z,41.30
2022-12-03T01:33:50.157Z,31.50
2022-12-03T01:36:16.565Z,39.70
2022-12-03T01:38:43.758Z,45.00
2022-12-03T01:41:12.080Z,46.70
2022-12-03T01:43:38.551Z,37.80
2022-12-03T01:46:05.040Z,35.00
2022-12-03T01:48:34.451Z,38.90
2022-12-03T01:51:01.292Z,40.80
2022-12-03T01:53:27.841Z,34.80
2022-12-03T01:55:54.266Z,38.40
2022-12-03T01:58:24.607Z,42.90
2022-12-03T02:00:51.063Z,32.50
2022-12-03T02:03:22.788Z,37.50
2022-12-03T02:05:49.250Z,53.00
2022-12-03T02:08:27.615Z,48.70
2022-12-03T02:10:54.094Z,35.70
2022-12-03T02:13:20.766Z,39.00
2022-12-03T02:15:47.338Z,43.40
2022-12-03T02:18:13.809Z,41.20
2022-12-03T02:20:45.742Z,33.20
2022-12-03T02:23:24.668Z,20.30
2022-12-03T02:25:51.061Z,36.20
2022-12-03T02:28:17.449Z,42.00
2022-12-03T02:30:43.846Z,41.10
2022-12-03T02:33:10.500Z,38.60
2022-12-03T02:35:37.900Z,36.20
2022-12-03T02:38:10.895Z,34.10
2022-12-03T02:40:37.501Z,40.40
2022-12-03T02:43:04.527Z,46.40
2022-12-03T02:45:35.492Z,31.30
2022-12-03T02:48:04.840Z,38.70
2022-12-03T02:50:33.406Z,42.30
2022-12-03T02:53:02.389Z,39.60
2022-12-03T02:55:36.334Z,34.90
2022-12-03T02:58:04.221Z,33.50
2022-12-03T03:00:30.714Z,38.60
2022-12-03T03:02:57.390Z,39.30
2022-12-03T03:05:24.096Z,31.60
2022-12-03T03:07:50.936Z,36.50
2022-12-03T03:10:20.350Z,40.20
2022-12-03T03:12:47.739Z,40.90
2022-12-03T03:15:14.586Z,42.40
2022-12-03T03:17:41.831Z,40.20
2022-12-03T03:20:11.360Z,27.00
2022-12-03T03:22:39.009Z,39.00
2022-12-03T03:25:06.494Z,36.40
2022-12-03T03:27:33.273Z,36.60
2022-12-03T03:30:00.050Z,43.90
2022-12-03T03:32:27.434Z,35.10
2022-12-03T03:34:54.649Z,50.40
2022-12-03T03:37:21.387Z,44.80
2022-12-03T03:39:47.738Z,42.90
2022-12-03T03:42:14.240Z,26.30
2022-12-03T03:44:40.791Z,33.60
2022-12-03T03:47:07.189Z,41.30
2022-12-03T03:49:33.829Z,43.50
2022-12-03T03:52:00.233Z,46.30
2022-12-03T03:54:26.639Z,48.00
2022-12-03T03:56:53.010Z,38.40
2022-12-03T03:59:19.398Z,32.60
2022-12-03T04:01:46.077Z,37.40
2022-12-03T04:04:18.003Z,50.40
2022-12-03T04:06:44.498Z,35.60
2022-12-03T04:09:10.970Z,46.40
2022-12-03T04:11:55.686Z,42.40
2022-12-03T04:14:22.041Z,51.60
2022-12-03T04:16:48.479Z,40.50
2022-12-03T04:19:14.874Z,28.50
2022-12-03T04:25:37.075Z,45.20
2022-12-03T04:28:22.242Z,24.70
2022-12-03T04:30:48.655Z,39.60
2022-12-03T04:33:33.625Z,33.30
2022-12-03T04:36:00.048Z,39.40
2022-12-03T04:38:26.592Z,39.90
2022-12-03T04:41:03.551Z,44.00
2022-12-03T04:43:31.719Z,35.70
2022-12-03T04:45:58.337Z,36.60
2022-12-03T04:48:24.938Z,37.30
2022-12-03T04:50:51.372Z,44.00
2022-12-03T04:53:18.112Z,35.10
2022-12-03T04:55:44.471Z,26.20
2022-12-03T04:58:10.932Z,43.20
2022-12-03T05:00:37.313Z,41.70
2022-12-03T05:03:03.830Z,44.80
2022-12-03T05:05:30.572Z,45.60
2022-12-03T05:07:57.298Z,43.10
2022-12-03T05:10:23.860Z,38.60
2022-12-03T05:12:50.190Z,42.10
2022-12-03T05:15:16.639Z,37.80
2022-12-03T05:17:44.693Z,35.30
2022-12-03T05:20:29.926Z,45.00
2022-12-03T05:22:56.406Z,39.70
2022-12-03T05:25:22.837Z,43.80
2022-12-03T05:27:49.396Z,42.20
2022-12-03T05:30:16.114Z,54.10
2022-12-03T05:32:42.561Z,47.60
2022-12-03T05:35:09.389Z,49.00
2022-12-03T05:37:35.826Z,49.30
2022-12-03T05:40:02.905Z,40.60
2022-12-03T05:42:48.040Z,45.50
2022-12-03T05:45:14.577Z,28.70
2022-12-03T05:47:40.938Z,47.50
2022-12-03T05:50:07.515Z,39.60
2022-12-03T05:52:33.885Z,52.60
2022-12-03T05:55:00.367Z,46.40
2022-12-03T05:57:28.515Z,45.70
2022-12-03T05:59:54.932Z,52.10
2022-12-03T06:02:21.457Z,47.70
2022-12-03T06:04:48.601Z,49.70
2022-12-03T06:07:15.001Z,49.00
2022-12-03T06:09:41.454Z,55.20
2022-12-03T06:12:10.700Z,47.20
2022-12-03T06:14:37.047Z,55.20
2022-12-03T06:17:04.323Z,55.80
2022-12-03T06:19:30.888Z,47.10
2022-12-03T06:21:57.421Z,45.40
2022-12-03T06:24:24.011Z,52.40
2022-12-03T06:26:50.509Z,46.60
2022-12-03T06:29:16.974Z,36.70
2022-12-03T06:31:43.398Z,55.60
2022-12-03T06:34:09.895Z,51.60
2022-12-03T06:36:36.268Z,59.40
2022-12-03T06:39:02.673Z,48.50
2022-12-03T06:41:29.091Z,51.70
2022-12-03T06:43:55.506Z,45.30
2022-12-03T06:46:21.904Z,55.30
2022-12-03T06:48:48.386Z,51.10
2022-12-03T06:51:14.812Z,36.90
2022-12-03T06:53:41.215Z,57.50
2022-12-03T06:56:07.689Z,50.10
2022-12-03T06:58:34.188Z,50.00
2022-12-03T07:01:00.565Z,57.20
2022-12-03T07:03:27.067Z,44.90
2022-12-03T07:05:53.569Z,61.50
2022-12-03T07:08:19.972Z,65.30
2022-12-03T07:10:46.378Z,56.90
2022-12-03T07:13:12.913Z,53.00
2022-12-03T07:15:39.363Z,45.30
2022-12-03T07:18:05.796Z,104.40
2022-12-03T07:20:32.152Z,88.50
2022-12-03T07:22:58.566Z,74.60
2022-12-03T07:25:25.041Z,89.60
2022-12-03T07:27:51.415Z,100.20
2022-12-03T07:30:17.966Z,132.90
2022-12-03T07:32:44.333Z,109.20
2022-12-03T07:35:10.861Z,76.90
2022-12-03T07:37:37.364Z,93.70
2022-12-03T07:40:06.308Z,74.40
2022-12-03T07:42:32.709Z,66.40
2022-12-03T07:44:59.219Z,67.80
2022-12-03T07:47:25.671Z,75.30
2022-12-03T07:49:52.027Z,63.30
2022-12-03T07:52:18.519Z,77.40
2022-12-03T07:54:45.054Z,95.00
2022-12-03T07:57:11.404Z,84.90
2022-12-03T07:59:38.043Z,69.50
2022-12-03T08:02:04.745Z,75.90
2022-12-03T08:04:31.423Z,103.00
2022-12-03T08:06:57.820Z,107.50
2022-12-03T08:09:24.290Z,56.80
2022-12-03T08:11:51.427Z,80.00
2022-12-03T08:14:18.874Z,50.90
2022-12-03T08:16:45.975Z,56.70
2022-12-03T08:19:16.862Z,60.70
2022-12-03T08:21:43.532Z,49.00
2022-12-03T08:24:19.897Z,57.70
2022-12-03T08:26:47.468Z,61.90
2022-12-03T08:29:15.306Z,61.20
2022-12-03T08:31:42.318Z,65.00
2022-12-03T08:34:11.549Z,75.70
2022-12-03T08:36:44.076Z,50.70
2022-12-03T08:39:20.569Z,60.80
2022-12-03T08:42:13.709Z,62.90
2022-12-03T08:44:40.606Z,59.20
2022-12-03T08:47:15.335Z,67.40
2022-12-03T08:53:27.761Z,67.30
2022-12-03T08:55:56.230Z,62.70
2022-12-03T08:58:24.309Z,64.80
2022-12-03T09:01:24.021Z,71.60
2022-12-03T09:03:52.034Z,64.70
2022-12-03T09:06:18.722Z,50.30
2022-12-03T09:08:45.314Z,64.40
2022-12-03T09:11:11.931Z,76.70
2022-12-03T09:13:38.331Z,76.00
2022-12-03T09:16:05.108Z,69.70
2022-12-03T09:18:31.932Z,66.60
2022-12-03T09:21:00.490Z,59.20
2022-12-03T09:23:26.834Z,69.30
2022-12-03T09:25:53.253Z,73.90
2022-12-03T09:28:19.789Z,85.90
2022-12-03T09:30:46.324Z,80.10
2022-12-03T09:33:13.374Z,83.70
2022-12-03T09:35:39.710Z,79.70
2022-12-03T09:38:06.134Z,92.10
2022-12-03T09:40:33.317Z,65.60
2022-12-03T09:43:00.435Z,92.90
2022-12-03T09:45:26.775Z,84.50
2022-12-03T09:47:54.227Z,65.50
2022-12-03T09:50:24.798Z,78.70
2022-12-03T09:52:54.448Z,79.20
2022-12-03T09:55:22.654Z,87.70
2022-12-03T09:57:50.486Z,89.10
2022-12-03T10:00:18.583Z,65.00
2022-12-03T10:02:46.135Z,87.30
2022-12-03T10:05:13.353Z,69.20
2022-12-03T10:07:40.467Z,83.90
2022-12-03T10:10:14.755Z,102.90
2022-12-03T10:12:41.184Z,65.10
2022-12-03T10:15:10.982Z,83.50
2022-12-03T10:17:37.547Z,73.50
2022-12-03T10:20:04.593Z,86.90
2022-12-03T10:22:36.554Z,81.10
2022-12-03T10:25:06.203Z,71.20
2022-12-03T10:30:37.395Z,106.40
2022-12-03T10:33:28.649Z,68.50
2022-12-03T10:35:55.082Z,90.10
2022-12-03T10:38:22.535Z,75.70
2022-12-03T10:40:49.469Z,83.10
2022-12-03T10:43:21.119Z,173.50
2022-12-03T10:45:48.923Z,128.20
2022-12-03T10:48:18.780Z,202.30
2022-12-03T10:50:46.739Z,145.80
2022-12-03T10:53:13.200Z,142.60
2022-12-03T10:55:41.477Z,96.90
2022-12-03T10:58:14.854Z,80.60
2022-12-03T11:00:41.436Z,94.70
2022-12-03T11:03:16.640Z,91.80
2022-12-03T11:05:44.941Z,94.60
2022-12-03T11:08:15.732Z,107.30
2022-12-03T11:11:01.152Z,84.10
2022-12-03T11:13:33.518Z,84.40
2022-12-03T11:16:01.914Z,84.70
2022-12-03T11:18:37.950Z,69.50
2022-12-03T11:21:17.090Z,77.20
2022-12-03T11:23:43.620Z,75.00
2022-12-03T11:26:19.595Z,69.60
2022-12-03T11:28:46.478Z,73.50
2022-12-03T11:31:32.165Z,63.30
2022-12-03T11:34:17.492Z,61.60
2022-12-03T11:37:16.783Z,83.70
2022-12-03T11:39:49.161Z,83.20
2022-12-03T11:42:34.570Z,87.70
2022-12-03T11:45:29.133Z,88.60
2022-12-03T11:47:58.745Z,120.30
2022-12-03T11:50:31.691Z,82.40
2022-12-03T11:53:21.401Z,93.60
2022-12-03T11:55:51.731Z,90.30
2022-12-03T11:58:25.522Z,114.50
2022-12-03T12:03:34.961Z,91.40
2022-12-03T12:08:52.536Z,73.80
2022-12-03T12:11:21.701Z,79.40
2022-12-03T12:13:49.594Z,71.40
2022-12-03T12:16:35.343Z,78.30
2022-12-03T12:19:20.991Z,79.50
2022-12-03T12:22:24.575Z,92.70
2022-12-03T12:24:52.331Z,74.20
2022-12-03T12:27:36.786Z,68.10
2022-12-03T12:30:03.320Z,73.80
2022-12-03T12:32:31.912Z,87.40
2022-12-03T12:35:04.910Z,73.80
2022-12-03T12:37:44.926Z,74.80
2022-12-03T12:40:17.588Z,79.40
2022-12-03T12:42:49.392Z,79.90
2022-12-03T12:45:17.563Z,85.10
2022-12-03T12:47:53.082Z,81.70
2022-12-03T12:50:19.627Z,80.90
2022-12-03T12:52:51.311Z,75.80
2022-12-03T12:55:18.144Z,66.10
2022-12-03T12:57:47.671Z,65.70
2022-12-03T13:00:16.483Z,66.30
2022-12-03T13:03:03.454Z,83.40
2022-12-03T13:05:50.675Z,59.40
2022-12-03T13:08:20.212Z,75.20
2022-12-03T13:10:47.226Z,69.60
2022-12-03T13:13:51.372Z,75.70
2022-12-03T13:16:47.183Z,87.00
2022-12-03T13:19:59.306Z,74.40
2022-12-03T13:22:48.853Z,94.20
2022-12-03T13:25:58.236Z,55.90
2022-12-03T13:28:21.278Z,69.30
2022-12-03T13:30:47.782Z,87.50
2022-12-03T13:33:25.912Z,79.40
2022-12-03T13:35:54.256Z,83.40
2022-12-03T13:38:23.252Z,84.80
2022-12-03T13:41:03.534Z,84.50
2022-12-03T13:43:31.675Z,70.90
2022-12-03T13:46:17.954Z,66.60
2022-12-03T13:49:10.094Z,84.20
2022-12-03T13:51:36.637Z,73.20
2022-12-03T13:54:04.891Z,82.20
2022-12-03T13:56:32.223Z,86.90
2022-12-03T13:59:00.569Z,77.40
2022-12-03T14:01:28.018Z,85.70
2022-12-03T14:04:31.722Z,72.20
2022-12-03T14:07:54.328Z,78.50
2022-12-03T14:10:21.002Z,81.60
2022-12-03T14:12:47.548Z,83.00
2022-12-03T14:15:13.967Z,79.70
2022-12-03T14:17:40.609Z,67.50
2022-12-03T14:20:07.558Z,77.00
2022-12-03T14:22:37.293Z,94.30
2022-12-03T14:25:04.614Z,92.80
2022-12-03T14:27:40.163Z,92.10
2022-12-03T14:30:07.412Z,82.40
2022-12-03T14:32:37.022Z,98.10
2022-12-03T14:35:08.315Z,82.70
2022-12-03T14:37:37.566Z,84.60
2022-12-03T14:40:08.669Z,90.00
2022-12-03T14:42:39.376Z,75.50
2022-12-03T14:45:06.402Z,78.30
2022-12-03T14:47:32.924Z,93.90
2022-12-03T14:49:59.818Z,91.40
2022-12-03T14:52:27.121Z,84.00
2022-12-03T14:54:53.658Z,88.80
2022-12-03T14:57:25.556Z,84.30
2022-12-03T14:59:52.711Z,92.40
2022-12-03T15:02:19.869Z,99.70
2022-12-03T15:05:15.333Z,99.90
2022-12-03T15:07:42.309Z,103.80
2022-12-03T15:10:09.020Z,85.40
2022-12-03T15:12:35.553Z,105.80
2022-12-03T15:15:02.128Z,87.90
2022-12-03T15:18:06.714Z,100.20
2022-12-03T15:20:51.741Z,89.50
2022-12-03T15:23:18.161Z,83.10
2022-12-03T15:25:44.711Z,87.10
2022-12-03T15:28:11.292Z,89.00
2022-12-03T15:30:39.875Z,93.70
2022-12-03T15:33:09.178Z,82.80
2022-12-03T15:35:43.606Z,83.80
2022-12-03T15:44:01.156Z,94.20
2022-12-03T15:46:46.697Z,93.30
2022-12-03T15:49:13.380Z,89.20
2022-12-03T15:57:09.196Z,89.30
2022-12-03T15:59:35.657Z,99.30
2022-12-03T16:02:13.902Z,100.70
2022-12-03T16:04:49.980Z,116.80
2022-12-03T16:07:16.473Z,116.50
2022-12-03T16:09:42.806Z,98.10
2022-12-03T16:12:09.240Z,99.40
2022-12-03T16:14:36.782Z,112.60
2022-12-03T16:17:29.803Z,111.50
2022-12-03T16:19:58.953Z,102.00
2022-12-03T16:22:25.415Z,102.30
2022-12-03T16:24:54.889Z,105.70
2022-12-03T16:27:25.906Z,107.20
2022-12-03T16:29:56.211Z,116.50
2022-12-03T16:32:24.534Z,109.90
2022-12-03T16:34:52.906Z,117.50
2022-12-03T16:37:20.960Z,90.50
2022-12-03T16:42:33.487Z,100.20
2022-12-03T16:45:22.469Z,76.50
2022-12-03T16:50:42.673Z,98.40
2022-12-03T16:53:09.121Z,120.30
2022-12-03T16:55:35.661Z,108.20
2022-12-03T16:58:02.143Z,119.90
2022-12-03T17:00:28.656Z,122.70
2022-12-03T17:02:55.395Z,131.50
2022-12-03T17:05:21.997Z,123.60
2022-12-03T17:07:48.631Z,114.70
2022-12-03T17:10:15.423Z,108.90
2022-12-03T17:13:08.399Z,114.40
2022-12-03T17:15:28.511Z,111.80
2022-12-03T17:17:55.144Z,101.30
2022-12-03T17:20:21.684Z,122.40
2022-12-03T17:22:48.193Z,108.60
2022-12-03T17:25:14.684Z,103.10
2022-12-03T17:27:45.053Z,101.30
2022-12-03T17:30:12.646Z,98.40
2022-12-03T17:32:39.109Z,99.10
2022-12-03T17:35:05.913Z,106.40
2022-12-03T17:37:32.341Z,91.90
2022-12-03T17:39:58.773Z,98.50
2022-12-03T17:42:25.526Z,112.60
2022-12-03T17:44:52.058Z,100.10
2022-12-03T17:47:18.516Z,110.60
2022-12-03T17:49:45.005Z,90.70
2022-12-03T17:52:11.406Z,130.00
2022-12-03T17:55:01.786Z,110.40
2022-12-03T17:57:24.405Z,118.40
2022-12-03T17:59:51.228Z,95.60
2022-12-03T18:02:17.907Z,115.50
2022-12-03T18:04:44.523Z,100.10
2022-12-03T18:07:10.880Z,103.80
2022-12-03T18:09:37.381Z,92.30
2022-12-03T18:12:04.005Z,88.60
2022-12-03T18:14:30.451Z,100.40
2022-12-03T18:16:56.815Z,90.80
2022-12-03T18:19:25.465Z,94.60
2022-12-03T18:21:52.934Z,102.90
2022-12-03T18:24:20.104Z,117.10
2022-12-03T18:26:46.543Z,112.30
2022-12-03T18:29:13.021Z,100.30
2022-12-03T18:31:39.749Z,103.70
2022-12-03T18:34:06.194Z,102.80
2022-12-03T18:36:33.981Z,124.30
2022-12-03T18:39:00.781Z,146.50
2022-12-03T18:41:27.362Z,178.00
2022-12-03T18:43:53.790Z,234.40
2022-12-03T18:49:08.059Z,137.60
2022-12-03T18:51:34.436Z,478.00
2022-12-03T18:54:00.926Z,213.80
2022-12-03T18:56:27.461Z,254.10
2022-12-03T18:58:54.042Z,306.70
2022-12-03T19:01:21.471Z,211.40
2022-12-03T19:03:49.012Z,144.10
2022-12-03T19:06:18.793Z,161.70
2022-12-03T19:08:46.215Z,126.70
2022-12-03T19:11:12.742Z,148.30
2022-12-03T19:13:39.991Z,139.60
2022-12-03T19:16:07.518Z,128.40
2022-12-03T19:18:34.575Z,121.50
2022-12-03T19:21:05.312Z,122.40
2022-12-03T19:23:31.664Z,100.30
2022-12-03T19:25:59.228Z,112.70
2022-12-03T19:28:26.226Z,128.50
2022-12-03T19:30:57.150Z,147.00
2022-12-03T19:33:28.251Z,127.90
2022-12-03T19:35:55.831Z,138.20
2022-12-03T19:38:22.769Z,120.20
2022-12-03T19:40:58.442Z,110.20
2022-12-03T19:43:24.976Z,117.80
2022-12-03T19:45:51.485Z,114.70
2022-12-03T19:48:18.084Z,128.00
2022-12-03T19:51:02.881Z,99.20
2022-12-03T19:53:34.605Z,105.70
2022-12-03T19:56:02.203Z,142.90
2022-12-03T19:58:29.221Z,111.80
2022-12-03T20:00:55.648Z,110.80
2022-12-03T20:03:22.099Z,104.80
2022-12-03T20:05:49.856Z,135.80
2022-12-03T20:08:16.327Z,115.50
2022-12-03T20:10:42.741Z,123.90
2022-12-03T20:13:09.182Z,109.00
2022-12-03T20:15:36.424Z,124.40
2022-12-03T20:18:02.859Z,111.20
2022-12-03T20:20:29.414Z,109.20
2022-12-03T20:22:55.802Z,105.90
2022-12-03T20:25:22.178Z,102.30
2022-12-03T20:27:48.566Z,124.20
2022-12-03T20:30:15.130Z,104.20
2022-12-03T20:32:45.317Z,118.60
2022-12-03T20:35:12.074Z,120.30
2022-12-03T20:37:38.553Z,135.00
2022-12-03T20:40:05.261Z,99.20
2022-12-03T20:42:31.614Z,122.00
2022-12-03T20:44:58.108Z,102.00
2022-12-03T20:47:24.558Z,107.00
2022-12-03T20:49:50.977Z,102.00
2022-12-03T20:52:17.378Z,106.90
2022-12-03T20:54:43.868Z,97.10
2022-12-03T20:57:10.313Z,91.70
2022-12-03T20:59:36.730Z,106.20
2022-12-03T21:02:03.281Z,97.90
2022-12-03T21:04:29.795Z,98.80
2022-12-03T21:06:56.202Z,100.60
2022-12-03T21:09:22.599Z,86.40
2022-12-03T21:11:49.074Z,111.40
2022-12-03T21:14:15.427Z,125.00
2022-12-03T21:17:07.245Z,96.10
2022-12-03T21:19:32.023Z,111.20
2022-12-03T21:21:58.383Z,105.50
2022-12-03T21:24:24.790Z,105.00
2022-12-03T21:26:51.199Z,121.30
2022-12-03T21:29:17.704Z,111.60
2022-12-03T21:31:44.107Z,95.80
2022-12-03T21:34:10.502Z,116.70
2022-12-03T21:36:36.935Z,87.40
2022-12-03T21:39:04.144Z,102.00
2022-12-03T21:41:31.364Z,117.30
2022-12-03T21:43:57.977Z,138.70
2022-12-03T21:47:10.160Z,157.30
2022-12-03T21:49:10.813Z,151.10
2022-12-03T21:51:37.220Z,116.50
2022-12-03T21:54:03.624Z,90.70
2022-12-03T21:56:31.356Z,109.30
2022-12-03T21:58:57.803Z,118.80
2022-12-03T22:01:24.469Z,94.30
2022-12-03T22:03:51.883Z,102.60
2022-12-03T22:06:18.697Z,114.20
2022-12-03T22:08:45.608Z,109.70
2022-12-03T22:11:16.406Z,110.30
2022-12-03T22:13:43.076Z,100.80
2022-12-03T22:16:12.340Z,115.50
2022-12-03T22:18:39.294Z,111.60
2022-12-03T22:21:07.051Z,96.70
2022-12-03T22:23:33.624Z,113.20
2022-12-03T22:26:01.463Z,102.00
2022-12-03T22:28:28.062Z,104.20
2022-12-03T22:30:54.503Z,130.20
2022-12-03T22:33:21.409Z,130.80
2022-12-03T22:35:57.633Z,107.00
2022-12-03T22:38:24.268Z,98.70
2022-12-03T22:40:50.701Z,104.70
2022-12-03T22:43:17.444Z,109.80
2022-12-03T22:45:43.978Z,118.70
2022-12-03T22:48:10.516Z,94.30
2022-12-03T22:50:40.646Z,98.90
2022-12-03T22:53:07.065Z,99.10
2022-12-03T22:55:33.506Z,124.80
2022-12-03T22:57:59.895Z,93.10
2022-12-03T23:00:28.078Z,101.10
2022-12-03T23:02:54.476Z,114.80
2022-12-03T23:05:20.880Z,104.80
2022-12-03T23:07:47.359Z,107.60
2022-12-03T23:10:13.838Z,133.40
2022-12-03T23:12:40.322Z,106.20
2022-12-03T23:15:07.220Z,92.90
2022-12-03T23:17:33.620Z,96.00
2022-12-03T23:20:00.060Z,98.90
2022-12-03T23:22:26.519Z,104.60
2022-12-03T23:24:53.010Z,132.70
2022-12-03T23:27:19.413Z,103.20
2022-12-03T23:29:45.772Z,114.70
2022-12-03T23:32:12.166Z,111.20
2022-12-03T23:34:38.628Z,131.10
2022-12-03T23:37:05.052Z,98.00
2022-12-03T23:39:31.387Z,139.90
2022-12-03T23:41:57.817Z,104.30
2022-12-03T23:44:24.311Z,113.70
2022-12-03T23:46:50.703Z,124.50
2022-12-03T23:49:17.070Z,106.50
2022-12-03T23:51:43.490Z,98.70
2022-12-03T23:54:11.472Z,86.90
2022-12-03T23:56:38.865Z,103.70
2022-12-03T23:59:05.297Z,103.40
